sensor_id;sensor_type;location;lat;lon;timestamp;P1;durP1;ratioP1;P2;durP2;ratioP2
33279;SDS011;20403;43.114;12.434;2022-08-14T00:01:21;5.25;;;1.50;;
33279;SDS011;20403;43.114;12.434;2022-08-14T00:03:46;5.22;;;1.45;;
33279;SDS011;20403;43.114;12.434;2022-08-14T00:06:11;6.38;;;1.95;;
33279;SDS011;20403;43.114;12.434;2022-08-14T00:08:37;4.97;;;1.50;;
33279;SDS011;20403;43.114;12.434;2022-08-14T00:11:03;4.78;;;1.67;;
33279;SDS011;20403;43.114;12.434;2022-08-14T00:13:28;4.15;;;1.40;;
33279;SDS011;20403;43.114;12.434;2022-08-14T00:15:54;7.68;;;1.75;;
33279;SDS011;20403;43.114;12.434;2022-08-14T00:18:22;9.15;;;1.83;;
33279;SDS011;20403;43.114;12.434;2022-08-14T00:20:49;12.18;;;1.90;;
33279;SDS011;20403;43.114;12.434;2022-08-14T00:23:15;11.18;;;1.60;;
33279;SDS011;20403;43.114;12.434;2022-08-14T00:25:42;7.82;;;1.30;;
33279;SDS011;20403;43.114;12.434;2022-08-14T00:28:16;2.35;;;1.40;;
33279;SDS011;20403;43.114;12.434;2022-08-14T00:30:43;5.00;;;1.65;;
33279;SDS011;20403;43.114;12.434;2022-08-14T00:33:11;7.72;;;1.63;;
33279;SDS011;20403;43.114;12.434;2022-08-14T00:35:37;7.97;;;2.00;;
33279;SDS011;20403;43.114;12.434;2022-08-14T00:38:03;5.57;;;1.70;;
33279;SDS011;20403;43.114;12.434;2022-08-14T00:40:28;5.32;;;1.70;;
33279;SDS011;20403;43.114;12.434;2022-08-14T00:42:54;4.45;;;1.55;;
33279;SDS011;20403;43.114;12.434;2022-08-14T00:45:19;6.18;;;1.52;;
33279;SDS011;20403;43.114;12.434;2022-08-14T00:47:45;6.15;;;1.70;;
33279;SDS011;20403;43.114;12.434;2022-08-14T00:50:13;7.07;;;1.60;;
33279;SDS011;20403;43.114;12.434;2022-08-14T00:52:42;7.68;;;1.70;;
33279;SDS011;20403;43.114;12.434;2022-08-14T00:55:09;5.20;;;1.52;;
33279;SDS011;20403;43.114;12.434;2022-08-14T00:57:35;9.50;;;1.67;;
33279;SDS011;20403;43.114;12.434;2022-08-14T01:00:04;10.63;;;1.83;;
33279;SDS011;20403;43.114;12.434;2022-08-14T01:02:36;9.63;;;1.73;;
33279;SDS011;20403;43.114;12.434;2022-08-14T01:05:03;8.85;;;1.95;;
33279;SDS011;20403;43.114;12.434;2022-08-14T01:07:31;2.47;;;1.35;;
33279;SDS011;20403;43.114;12.434;2022-08-14T01:09:59;6.65;;;1.50;;
33279;SDS011;20403;43.114;12.434;2022-08-14T01:12:26;10.80;;;2.03;;
33279;SDS011;20403;43.114;12.434;2022-08-14T01:14:53;7.38;;;1.50;;
33279;SDS011;20403;43.114;12.434;2022-08-14T01:17:22;1.92;;;1.50;;
33279;SDS011;20403;43.114;12.434;2022-08-14T01:20:09;5.93;;;2.05;;
33279;SDS011;20403;43.114;12.434;2022-08-14T01:22:53;6.03;;;1.60;;
33279;SDS011;20403;43.114;12.434;2022-08-14T01:25:18;4.60;;;1.77;;
33279;SDS011;20403;43.114;12.434;2022-08-14T01:27:44;4.00;;;1.60;;
33279;SDS011;20403;43.114;12.434;2022-08-14T01:30:10;5.97;;;1.58;;
33279;SDS011;20403;43.114;12.434;2022-08-14T01:32:36;4.35;;;1.58;;
33279;SDS011;20403;43.114;12.434;2022-08-14T01:35:02;8.35;;;1.88;;
33279;SDS011;20403;43.114;12.434;2022-08-14T01:37:31;4.38;;;1.70;;
33279;SDS011;20403;43.114;12.434;2022-08-14T01:39:56;12.23;;;1.85;;
33279;SDS011;20403;43.114;12.434;2022-08-14T05:49:06;3.40;;;1.92;;
33279;SDS011;20403;43.114;12.434;2022-08-14T05:51:31;8.52;;;2.90;;
33279;SDS011;20403;43.114;12.434;2022-08-14T05:53:57;5.78;;;2.13;;
33279;SDS011;20403;43.114;12.434;2022-08-14T05:56:23;7.72;;;2.28;;
33279;SDS011;20403;43.114;12.434;2022-08-14T05:58:49;8.10;;;1.88;;
33279;SDS011;20403;43.114;12.434;2022-08-14T06:01:15;3.67;;;2.00;;
33279;SDS011;20403;43.114;12.434;2022-08-14T06:03:40;7.80;;;1.90;;
33279;SDS011;20403;43.114;12.434;2022-08-14T06:06:06;4.28;;;2.03;;
33279;SDS011;20403;43.114;12.434;2022-08-14T06:08:32;2.83;;;1.95;;
33279;SDS011;20403;43.114;12.434;2022-08-14T06:11:01;4.97;;;2.10;;
33279;SDS011;20403;43.114;12.434;2022-08-14T06:13:30;4.75;;;2.03;;
33279;SDS011;20403;43.114;12.434;2022-08-14T06:15:59;5.95;;;2.40;;
33279;SDS011;20403;43.114;12.434;2022-08-14T06:18:24;4.25;;;2.20;;
33279;SDS011;20403;43.114;12.434;2022-08-14T06:20:50;2.78;;;2.25;;
33279;SDS011;20403;43.114;12.434;2022-08-14T06:23:16;4.72;;;2.10;;
33279;SDS011;20403;43.114;12.434;2022-08-14T06:25:41;4.72;;;2.17;;
33279;SDS011;20403;43.114;12.434;2022-08-14T06:28:14;2.88;;;1.98;;
33279;SDS011;20403;43.114;12.434;2022-08-14T06:30:52;6.25;;;2.08;;
33279;SDS011;20403;43.114;12.434;2022-08-14T06:33:18;5.95;;;2.15;;
33279;SDS011;20403;43.114;12.434;2022-08-14T06:35:45;4.43;;;1.75;;
33279;SDS011;20403;43.114;12.434;2022-08-14T06:38:17;2.97;;;2.10;;
33279;SDS011;20403;43.114;12.434;2022-08-14T06:40:45;6.30;;;1.98;;
33279;SDS011;20403;43.114;12.434;2022-08-14T06:43:12;3.95;;;1.77;;
33279;SDS011;20403;43.114;12.434;2022-08-14T06:45:39;3.67;;;1.90;;
33279;SDS011;20403;43.114;12.434;2022-08-14T06:48:16;2.88;;;1.73;;
33279;SDS011;20403;43.114;12.434;2022-08-14T06:50:45;6.43;;;2.30;;
33279;SDS011;20403;43.114;12.434;2022-08-14T06:53:11;4.30;;;1.75;;
33279;SDS011;20403;43.114;12.434;2022-08-14T06:55:38;7.85;;;2.10;;
33279;SDS011;20403;43.114;12.434;2022-08-14T06:58:09;4.60;;;2.17;;
33279;SDS011;20403;43.114;12.434;2022-08-14T07:00:35;8.02;;;2.00;;
33279;SDS011;20403;43.114;12.434;2022-08-14T07:03:01;4.97;;;1.83;;
33279;SDS011;20403;43.114;12.434;2022-08-14T07:05:44;2.85;;;1.90;;
33279;SDS011;20403;43.114;12.434;2022-08-14T07:08:26;3.78;;;2.33;;
33279;SDS011;20403;43.114;12.434;2022-08-14T07:10:54;3.00;;;1.70;;
33279;SDS011;20403;43.114;12.434;2022-08-14T07:13:22;5.40;;;2.00;;
33279;SDS011;20403;43.114;12.434;2022-08-14T07:15:49;5.68;;;2.20;;
33279;SDS011;20403;43.114;12.434;2022-08-14T07:18:23;7.47;;;2.30;;
33279;SDS011;20403;43.114;12.434;2022-08-14T07:20:54;1.80;;;1.60;;
33279;SDS011;20403;43.114;12.434;2022-08-14T07:23:20;4.90;;;2.22;;
33279;SDS011;20403;43.114;12.434;2022-08-14T07:25:50;4.13;;;1.77;;
33279;SDS011;20403;43.114;12.434;2022-08-14T07:28:18;3.72;;;1.90;;
33279;SDS011;20403;43.114;12.434;2022-08-14T07:30:48;4.50;;;2.17;;
33279;SDS011;20403;43.114;12.434;2022-08-14T07:33:15;5.00;;;1.80;;
33279;SDS011;20403;43.114;12.434;2022-08-14T07:35:40;3.05;;;1.88;;
33279;SDS011;20403;43.114;12.434;2022-08-14T07:38:06;7.38;;;1.95;;
33279;SDS011;20403;43.114;12.434;2022-08-14T07:40:32;3.53;;;2.00;;
33279;SDS011;20403;43.114;12.434;2022-08-14T07:42:59;6.15;;;2.15;;
33279;SDS011;20403;43.114;12.434;2022-08-14T07:45:25;3.25;;;1.70;;
33279;SDS011;20403;43.114;12.434;2022-08-14T07:47:52;5.38;;;2.08;;
33279;SDS011;20403;43.114;12.434;2022-08-14T07:50:20;2.45;;;2.13;;
33279;SDS011;20403;43.114;12.434;2022-08-14T07:52:46;3.45;;;2.22;;
33279;SDS011;20403;43.114;12.434;2022-08-14T07:55:14;3.10;;;2.15;;
33279;SDS011;20403;43.114;12.434;2022-08-14T07:57:41;5.00;;;1.95;;
33279;SDS011;20403;43.114;12.434;2022-08-14T08:00:08;2.80;;;2.13;;
33279;SDS011;20403;43.114;12.434;2022-08-14T08:02:38;2.65;;;2.45;;
33279;SDS011;20403;43.114;12.434;2022-08-14T08:05:05;4.60;;;2.33;;
33279;SDS011;20403;43.114;12.434;2022-08-14T08:07:32;2.83;;;2.50;;
33279;SDS011;20403;43.114;12.434;2022-08-14T08:09:59;3.85;;;2.42;;
33279;SDS011;20403;43.114;12.434;2022-08-14T08:12:49;2.95;;;2.42;;
33279;SDS011;20403;43.114;12.434;2022-08-14T08:15:16;3.47;;;2.63;;
33279;SDS011;20403;43.114;12.434;2022-08-14T08:17:43;4.47;;;2.65;;
33279;SDS011;20403;43.114;12.434;2022-08-14T08:20:13;5.30;;;2.40;;
33279;SDS011;20403;43.114;12.434;2022-08-14T08:22:41;4.18;;;2.47;;
33279;SDS011;20403;43.114;12.434;2022-08-14T08:25:07;4.32;;;2.10;;
33279;SDS011;20403;43.114;12.434;2022-08-14T08:27:33;3.60;;;2.72;;
33279;SDS011;20403;43.114;12.434;2022-08-14T08:30:05;4.30;;;2.65;;
33279;SDS011;20403;43.114;12.434;2022-08-14T08:32:42;2.42;;;2.22;;
33279;SDS011;20403;43.114;12.434;2022-08-14T08:35:15;3.58;;;2.47;;
33279;SDS011;20403;43.114;12.434;2022-08-14T08:37:48;2.63;;;2.17;;
33279;SDS011;20403;43.114;12.434;2022-08-14T08:40:22;3.28;;;2.10;;
33279;SDS011;20403;43.114;12.434;2022-08-14T08:42:48;6.45;;;3.65;;
33279;SDS011;20403;43.114;12.434;2022-08-14T08:45:14;2.83;;;2.38;;
33279;SDS011;20403;43.114;12.434;2022-08-14T08:47:41;3.63;;;2.17;;
33279;SDS011;20403;43.114;12.434;2022-08-14T08:50:17;3.50;;;2.75;;
33279;SDS011;20403;43.114;12.434;2022-08-14T08:52:52;2.95;;;2.20;;
33279;SDS011;20403;43.114;12.434;2022-08-14T08:57:54;3.83;;;2.30;;
33279;SDS011;20403;43.114;12.434;2022-08-14T09:00:21;6.45;;;2.30;;
33279;SDS011;20403;43.114;12.434;2022-08-14T09:02:57;4.40;;;2.20;;
33279;SDS011;20403;43.114;12.434;2022-08-14T09:07:54;4.13;;;2.13;;
33279;SDS011;20403;43.114;12.434;2022-08-14T09:10:32;4.20;;;2.20;;
33279;SDS011;20403;43.114;12.434;2022-08-14T09:12:58;3.40;;;1.90;;
33279;SDS011;20403;43.114;12.434;2022-08-14T09:15:24;4.53;;;2.47;;
33279;SDS011;20403;43.114;12.434;2022-08-14T09:17:51;2.53;;;1.95;;
33279;SDS011;20403;43.114;12.434;2022-08-14T09:20:17;4.07;;;2.38;;
33279;SDS011;20403;43.114;12.434;2022-08-14T09:22:43;5.90;;;2.47;;
33279;SDS011;20403;43.114;12.434;2022-08-14T09:25:09;5.22;;;2.05;;
33279;SDS011;20403;43.114;12.434;2022-08-14T09:27:36;3.78;;;1.92;;
33279;SDS011;20403;43.114;12.434;2022-08-14T09:30:03;2.80;;;2.05;;
33279;SDS011;20403;43.114;12.434;2022-08-14T09:32:33;1.92;;;1.70;;
33279;SDS011;20403;43.114;12.434;2022-08-14T09:35:16;7.57;;;2.20;;
33279;SDS011;20403;43.114;12.434;2022-08-14T09:37:59;2.28;;;1.67;;
33279;SDS011;20403;43.114;12.434;2022-08-14T09:45:49;3.28;;;2.10;;
33279;SDS011;20403;43.114;12.434;2022-08-14T09:48:20;3.60;;;2.17;;
33279;SDS011;20403;43.114;12.434;2022-08-14T09:50:51;3.33;;;2.08;;
33279;SDS011;20403;43.114;12.434;2022-08-14T09:56:00;2.85;;;2.10;;
33279;SDS011;20403;43.114;12.434;2022-08-14T09:58:35;3.45;;;1.85;;
33279;SDS011;20403;43.114;12.434;2022-08-14T10:01:10;2.33;;;1.83;;
33279;SDS011;20403;43.114;12.434;2022-08-14T10:03:52;1.65;;;1.33;;
33279;SDS011;20403;43.114;12.434;2022-08-14T10:06:24;3.00;;;1.80;;
33279;SDS011;20403;43.114;12.434;2022-08-14T10:08:57;9.88;;;1.70;;
33279;SDS011;20403;43.114;12.434;2022-08-14T10:11:31;4.57;;;1.88;;
33279;SDS011;20403;43.114;12.434;2022-08-14T10:14:17;2.03;;;1.55;;
33279;SDS011;20403;43.114;12.434;2022-08-14T10:16:50;3.92;;;2.00;;
33279;SDS011;20403;43.114;12.434;2022-08-14T10:19:20;7.28;;;2.15;;
33279;SDS011;20403;43.114;12.434;2022-08-14T10:22:07;2.55;;;2.08;;
33279;SDS011;20403;43.114;12.434;2022-08-14T10:24:38;2.35;;;1.58;;
33279;SDS011;20403;43.114;12.434;2022-08-14T10:29:41;4.40;;;2.03;;
33279;SDS011;20403;43.114;12.434;2022-08-14T10:32:09;3.28;;;1.60;;
33279;SDS011;20403;43.114;12.434;2022-08-14T10:34:37;4.88;;;1.67;;
33279;SDS011;20403;43.114;12.434;2022-08-14T10:37:05;2.95;;;1.95;;
33279;SDS011;20403;43.114;12.434;2022-08-14T10:39:32;4.28;;;2.00;;
33279;SDS011;20403;43.114;12.434;2022-08-14T10:42:04;2.95;;;1.77;;
33279;SDS011;20403;43.114;12.434;2022-08-14T10:44:33;3.00;;;1.60;;
33279;SDS011;20403;43.114;12.434;2022-08-14T10:47:06;6.55;;;2.00;;
33279;SDS011;20403;43.114;12.434;2022-08-14T10:49:35;4.90;;;1.55;;
33279;SDS011;20403;43.114;12.434;2022-08-14T10:52:05;4.05;;;1.30;;
33279;SDS011;20403;43.114;12.434;2022-08-14T10:57:10;3.58;;;1.50;;
33279;SDS011;20403;43.114;12.434;2022-08-14T10:59:40;2.38;;;1.40;;
33279;SDS011;20403;43.114;12.434;2022-08-14T11:02:33;3.45;;;1.67;;
33279;SDS011;20403;43.114;12.434;2022-08-14T11:07:59;4.60;;;1.25;;
33279;SDS011;20403;43.114;12.434;2022-08-14T11:10:26;2.42;;;1.52;;
33279;SDS011;20403;43.114;12.434;2022-08-14T11:13:03;2.38;;;1.38;;
33279;SDS011;20403;43.114;12.434;2022-08-14T11:15:30;2.50;;;1.30;;
33279;SDS011;20403;43.114;12.434;2022-08-14T11:17:55;1.95;;;1.35;;
33279;SDS011;20403;43.114;12.434;2022-08-14T11:20:22;2.85;;;1.10;;
33279;SDS011;20403;43.114;12.434;2022-08-14T11:22:53;4.40;;;1.35;;
33279;SDS011;20403;43.114;12.434;2022-08-14T11:25:21;3.85;;;1.17;;
33279;SDS011;20403;43.114;12.434;2022-08-14T11:27:50;2.90;;;1.20;;
33279;SDS011;20403;43.114;12.434;2022-08-14T11:30:19;3.05;;;1.27;;
33279;SDS011;20403;43.114;12.434;2022-08-14T11:32:47;2.30;;;1.58;;
33279;SDS011;20403;43.114;12.434;2022-08-14T11:35:14;1.92;;;1.30;;
33279;SDS011;20403;43.114;12.434;2022-08-14T11:40:22;2.05;;;1.30;;
33279;SDS011;20403;43.114;12.434;2022-08-14T11:42:49;3.95;;;1.30;;
33279;SDS011;20403;43.114;12.434;2022-08-14T11:45:23;1.25;;;1.15;;
33279;SDS011;20403;43.114;12.434;2022-08-14T11:47:51;6.75;;;1.63;;
33279;SDS011;20403;43.114;12.434;2022-08-14T11:50:20;2.83;;;1.20;;
33279;SDS011;20403;43.114;12.434;2022-08-14T11:52:56;1.60;;;1.10;;
33279;SDS011;20403;43.114;12.434;2022-08-14T11:55:24;2.67;;;1.35;;
33279;SDS011;20403;43.114;12.434;2022-08-14T11:58:01;4.18;;;1.23;;
33279;SDS011;20403;43.114;12.434;2022-08-14T12:00:29;2.97;;;1.15;;
33279;SDS011;20403;43.114;12.434;2022-08-14T12:02:55;1.40;;;1.08;;
33279;SDS011;20403;43.114;12.434;2022-08-14T12:07:54;1.52;;;1.02;;
33279;SDS011;20403;43.114;12.434;2022-08-14T12:10:21;1.58;;;1.13;;
33279;SDS011;20403;43.114;12.434;2022-08-14T12:12:46;1.00;;;0.98;;
33279;SDS011;20403;43.114;12.434;2022-08-14T12:15:13;3.47;;;1.15;;
33279;SDS011;20403;43.114;12.434;2022-08-14T12:17:43;5.93;;;4.10;;
33279;SDS011;20403;43.114;12.434;2022-08-14T12:20:13;1.55;;;1.20;;
33279;SDS011;20403;43.114;12.434;2022-08-14T12:22:42;3.70;;;1.75;;
33279;SDS011;20403;43.114;12.434;2022-08-14T12:25:20;1.55;;;1.20;;
33279;SDS011;20403;43.114;12.434;2022-08-14T12:27:47;1.95;;;1.30;;
33279;SDS011;20403;43.114;12.434;2022-08-14T12:33:05;2.90;;;1.20;;
33279;SDS011;20403;43.114;12.434;2022-08-14T12:35:50;1.50;;;1.20;;
33279;SDS011;20403;43.114;12.434;2022-08-14T12:38:18;3.45;;;1.25;;
33279;SDS011;20403;43.114;12.434;2022-08-14T12:40:54;2.50;;;1.20;;
33279;SDS011;20403;43.114;12.434;2022-08-14T12:43:20;1.88;;;1.15;;
33279;SDS011;20403;43.114;12.434;2022-08-14T12:45:47;6.30;;;1.30;;
33279;SDS011;20403;43.114;12.434;2022-08-14T12:48:14;2.15;;;1.30;;
33279;SDS011;20403;43.114;12.434;2022-08-14T12:50:41;2.40;;;1.50;;
33279;SDS011;20403;43.114;12.434;2022-08-14T12:53:09;5.15;;;1.50;;
33279;SDS011;20403;43.114;12.434;2022-08-14T12:55:35;2.97;;;1.20;;
33279;SDS011;20403;43.114;12.434;2022-08-14T12:58:03;5.05;;;1.30;;
33279;SDS011;20403;43.114;12.434;2022-08-14T13:00:31;3.22;;;0.98;;
33279;SDS011;20403;43.114;12.434;2022-08-14T13:03:01;5.10;;;1.80;;
33279;SDS011;20403;43.114;12.434;2022-08-14T13:05:30;2.83;;;1.10;;
33279;SDS011;20403;43.114;12.434;2022-08-14T13:07:59;1.70;;;1.17;;
33279;SDS011;20403;43.114;12.434;2022-08-14T13:12:56;2.10;;;1.23;;
33279;SDS011;20403;43.114;12.434;2022-08-14T13:15:23;2.03;;;1.38;;
33279;SDS011;20403;43.114;12.434;2022-08-14T13:17:50;2.25;;;1.05;;
33279;SDS011;20403;43.114;12.434;2022-08-14T13:20:21;5.97;;;1.63;;
33279;SDS011;20403;43.114;12.434;2022-08-14T13:22:49;3.25;;;1.25;;
33279;SDS011;20403;43.114;12.434;2022-08-14T13:25:19;5.55;;;1.67;;
33279;SDS011;20403;43.114;12.434;2022-08-14T13:27:48;4.05;;;1.08;;
33279;SDS011;20403;43.114;12.434;2022-08-14T13:30:16;2.70;;;1.00;;
33279;SDS011;20403;43.114;12.434;2022-08-14T13:32:44;2.33;;;1.35;;
33279;SDS011;20403;43.114;12.434;2022-08-14T13:35:10;1.10;;;1.00;;
33279;SDS011;20403;43.114;12.434;2022-08-14T13:37:36;1.75;;;1.20;;
33279;SDS011;20403;43.114;12.434;2022-08-14T13:40:03;6.18;;;1.25;;
33279;SDS011;20403;43.114;12.434;2022-08-14T13:42:29;2.03;;;0.95;;
33279;SDS011;20403;43.114;12.434;2022-08-14T13:44:56;4.10;;;1.35;;
33279;SDS011;20403;43.114;12.434;2022-08-14T13:47:24;1.77;;;1.02;;
33279;SDS011;20403;43.114;12.434;2022-08-14T13:49:54;3.33;;;0.98;;
33279;SDS011;20403;43.114;12.434;2022-08-14T13:52:22;4.30;;;0.82;;
33279;SDS011;20403;43.114;12.434;2022-08-14T13:54:49;2.28;;;1.10;;
33279;SDS011;20403;43.114;12.434;2022-08-14T13:57:18;2.33;;;1.40;;
33279;SDS011;20403;43.114;12.434;2022-08-14T13:59:48;2.45;;;1.15;;
33279;SDS011;20403;43.114;12.434;2022-08-14T14:02:15;1.77;;;1.20;;
33279;SDS011;20403;43.114;12.434;2022-08-14T14:04:44;4.00;;;1.23;;
33279;SDS011;20403;43.114;12.434;2022-08-14T14:07:12;3.47;;;1.20;;
33279;SDS011;20403;43.114;12.434;2022-08-14T14:09:40;1.17;;;0.90;;
33279;SDS011;20403;43.114;12.434;2022-08-14T14:12:07;1.67;;;1.30;;
33279;SDS011;20403;43.114;12.434;2022-08-14T14:14:35;1.10;;;0.93;;
33279;SDS011;20403;43.114;12.434;2022-08-14T14:17:02;1.17;;;1.00;;
33279;SDS011;20403;43.114;12.434;2022-08-14T14:19:28;2.88;;;1.00;;
33279;SDS011;20403;43.114;12.434;2022-08-14T14:21:59;2.22;;;1.35;;
33279;SDS011;20403;43.114;12.434;2022-08-14T14:24:26;2.33;;;1.50;;
33279;SDS011;20403;43.114;12.434;2022-08-14T14:26:53;1.90;;;1.05;;
33279;SDS011;20403;43.114;12.434;2022-08-14T14:29:23;2.45;;;0.90;;
33279;SDS011;20403;43.114;12.434;2022-08-14T14:31:50;1.73;;;1.05;;
33279;SDS011;20403;43.114;12.434;2022-08-14T14:34:16;1.20;;;1.02;;
33279;SDS011;20403;43.114;12.434;2022-08-14T14:36:48;1.38;;;1.27;;
33279;SDS011;20403;43.114;12.434;2022-08-14T14:39:15;2.10;;;1.15;;
33279;SDS011;20403;43.114;12.434;2022-08-14T14:41:41;1.67;;;0.95;;
33279;SDS011;20403;43.114;12.434;2022-08-14T14:44:11;1.90;;;1.20;;
33279;SDS011;20403;43.114;12.434;2022-08-14T14:46:39;3.53;;;1.10;;
33279;SDS011;20403;43.114;12.434;2022-08-14T14:49:08;1.95;;;1.15;;
33279;SDS011;20403;43.114;12.434;2022-08-14T14:51:38;1.98;;;1.13;;
33279;SDS011;20403;43.114;12.434;2022-08-14T14:54:06;2.55;;;1.27;;
33279;SDS011;20403;43.114;12.434;2022-08-14T14:56:32;4.25;;;1.17;;
33279;SDS011;20403;43.114;12.434;2022-08-14T14:58:58;2.10;;;1.20;;
33279;SDS011;20403;43.114;12.434;2022-08-14T15:01:24;3.30;;;1.30;;
33279;SDS011;20403;43.114;12.434;2022-08-14T15:03:50;1.40;;;1.10;;
33279;SDS011;20403;43.114;12.434;2022-08-14T15:06:19;5.43;;;1.10;;
33279;SDS011;20403;43.114;12.434;2022-08-14T15:08:47;2.85;;;1.40;;
33279;SDS011;20403;43.114;12.434;2022-08-14T15:11:12;2.63;;;0.90;;
33279;SDS011;20403;43.114;12.434;2022-08-14T15:13:38;3.22;;;1.48;;
33279;SDS011;20403;43.114;12.434;2022-08-14T15:16:03;1.75;;;1.40;;
33279;SDS011;20403;43.114;12.434;2022-08-14T15:18:30;2.05;;;1.17;;
33279;SDS011;20403;43.114;12.434;2022-08-14T15:20:56;2.55;;;1.20;;
33279;SDS011;20403;43.114;12.434;2022-08-14T15:23:22;3.08;;;1.40;;
33279;SDS011;20403;43.114;12.434;2022-08-14T15:25:48;4.18;;;1.48;;
33279;SDS011;20403;43.114;12.434;2022-08-14T15:28:14;2.45;;;1.70;;
33279;SDS011;20403;43.114;12.434;2022-08-14T15:30:41;2.97;;;1.55;;
33279;SDS011;20403;43.114;12.434;2022-08-14T15:33:10;2.70;;;1.30;;
33279;SDS011;20403;43.114;12.434;2022-08-14T15:35:36;2.40;;;1.20;;
33279;SDS011;20403;43.114;12.434;2022-08-14T15:38:02;6.10;;;1.63;;
33279;SDS011;20403;43.114;12.434;2022-08-14T15:40:35;4.68;;;1.35;;
33279;SDS011;20403;43.114;12.434;2022-08-14T15:43:08;1.95;;;1.15;;
33279;SDS011;20403;43.114;12.434;2022-08-14T15:45:36;1.90;;;1.33;;
33279;SDS011;20403;43.114;12.434;2022-08-14T15:48:02;2.53;;;1.30;;
33279;SDS011;20403;43.114;12.434;2022-08-14T15:50:31;3.60;;;1.65;;
33279;SDS011;20403;43.114;12.434;2022-08-14T15:52:56;4.25;;;1.58;;
33279;SDS011;20403;43.114;12.434;2022-08-14T15:55:22;2.17;;;1.30;;
33279;SDS011;20403;43.114;12.434;2022-08-14T15:57:48;3.20;;;1.40;;
33279;SDS011;20403;43.114;12.434;2022-08-14T16:00:14;2.50;;;1.48;;
33279;SDS011;20403;43.114;12.434;2022-08-14T16:02:58;1.70;;;1.40;;
33279;SDS011;20403;43.114;12.434;2022-08-14T16:05:24;6.38;;;1.60;;
33279;SDS011;20403;43.114;12.434;2022-08-14T16:07:53;1.75;;;1.50;;
33279;SDS011;20403;43.114;12.434;2022-08-14T16:10:20;2.28;;;1.42;;
33279;SDS011;20403;43.114;12.434;2022-08-14T16:12:46;11.68;;;1.75;;
33279;SDS011;20403;43.114;12.434;2022-08-14T16:15:14;3.38;;;1.77;;
33279;SDS011;20403;43.114;12.434;2022-08-14T16:17:40;1.95;;;1.60;;
33279;SDS011;20403;43.114;12.434;2022-08-14T16:20:09;5.13;;;1.60;;
33279;SDS011;20403;43.114;12.434;2022-08-14T16:22:34;1.50;;;1.38;;
33279;SDS011;20403;43.114;12.434;2022-08-14T16:25:00;8.93;;;1.95;;
33279;SDS011;20403;43.114;12.434;2022-08-14T16:27:27;10.05;;;2.00;;
33279;SDS011;20403;43.114;12.434;2022-08-14T16:29:54;4.18;;;1.45;;
33279;SDS011;20403;43.114;12.434;2022-08-14T16:32:20;5.70;;;1.42;;
33279;SDS011;20403;43.114;12.434;2022-08-14T16:34:47;2.22;;;1.48;;
33279;SDS011;20403;43.114;12.434;2022-08-14T16:37:14;3.65;;;1.27;;
33279;SDS011;20403;43.114;12.434;2022-08-14T16:39:40;3.90;;;1.35;;
33279;SDS011;20403;43.114;12.434;2022-08-14T16:42:07;3.40;;;1.48;;
33279;SDS011;20403;43.114;12.434;2022-08-14T16:44:34;2.78;;;1.50;;
33279;SDS011;20403;43.114;12.434;2022-08-14T16:47:02;8.32;;;1.70;;
33279;SDS011;20403;43.114;12.434;2022-08-14T16:49:29;4.70;;;1.58;;
33279;SDS011;20403;43.114;12.434;2022-08-14T16:51:55;5.60;;;1.33;;
33279;SDS011;20403;43.114;12.434;2022-08-14T16:54:21;5.95;;;1.83;;
33279;SDS011;20403;43.114;12.434;2022-08-14T16:56:48;5.15;;;1.70;;
33279;SDS011;20403;43.114;12.434;2022-08-14T16:59:17;6.25;;;1.58;;
33279;SDS011;20403;43.114;12.434;2022-08-14T17:01:55;2.00;;;1.50;;
33279;SDS011;20403;43.114;12.434;2022-08-14T17:04:24;3.50;;;1.30;;
33279;SDS011;20403;43.114;12.434;2022-08-14T17:06:56;4.00;;;1.45;;
33279;SDS011;20403;43.114;12.434;2022-08-14T17:09:24;2.63;;;1.60;;
33279;SDS011;20403;43.114;12.434;2022-08-14T17:12:00;6.88;;;2.30;;
33279;SDS011;20403;43.114;12.434;2022-08-14T17:14:46;8.48;;;1.77;;
33279;SDS011;20403;43.114;12.434;2022-08-14T17:20:05;2.72;;;1.70;;
33279;SDS011;20403;43.114;12.434;2022-08-14T17:25:29;7.63;;;1.98;;
33279;SDS011;20403;43.114;12.434;2022-08-14T17:28:17;5.80;;;1.70;;
33279;SDS011;20403;43.114;12.434;2022-08-14T17:30:51;8.23;;;1.85;;
33279;SDS011;20403;43.114;12.434;2022-08-14T17:33:19;12.57;;;2.13;;
33279;SDS011;20403;43.114;12.434;2022-08-14T17:35:45;7.88;;;2.10;;
33279;SDS011;20403;43.114;12.434;2022-08-14T17:38:11;5.43;;;1.75;;
33279;SDS011;20403;43.114;12.434;2022-08-14T17:40:37;4.35;;;1.60;;
33279;SDS011;20403;43.114;12.434;2022-08-14T17:43:03;3.78;;;1.65;;
33279;SDS011;20403;43.114;12.434;2022-08-14T17:48:05;4.72;;;1.52;;
33279;SDS011;20403;43.114;12.434;2022-08-14T17:50:39;4.82;;;1.75;;
33279;SDS011;20403;43.114;12.434;2022-08-14T17:53:13;9.77;;;2.00;;
33279;SDS011;20403;43.114;12.434;2022-08-14T17:55:40;9.25;;;1.90;;
33279;SDS011;20403;43.114;12.434;2022-08-14T18:00:42;7.57;;;2.10;;
33279;SDS011;20403;43.114;12.434;2022-08-14T18:03:09;6.80;;;1.80;;
33279;SDS011;20403;43.114;12.434;2022-08-14T18:05:42;3.20;;;1.67;;
33279;SDS011;20403;43.114;12.434;2022-08-14T18:08:10;6.45;;;1.88;;
33279;SDS011;20403;43.114;12.434;2022-08-14T18:10:39;5.95;;;1.98;;
33279;SDS011;20403;43.114;12.434;2022-08-14T18:13:08;9.30;;;2.20;;
33279;SDS011;20403;43.114;12.434;2022-08-14T18:15:34;5.43;;;2.17;;
33279;SDS011;20403;43.114;12.434;2022-08-14T18:18:00;8.73;;;2.03;;
33279;SDS011;20403;43.114;12.434;2022-08-14T18:20:30;11.88;;;2.17;;
33279;SDS011;20403;43.114;12.434;2022-08-14T18:22:59;8.95;;;2.05;;
33279;SDS011;20403;43.114;12.434;2022-08-14T18:25:25;6.43;;;2.10;;
33279;SDS011;20403;43.114;12.434;2022-08-14T18:27:51;8.63;;;1.98;;
33279;SDS011;20403;43.114;12.434;2022-08-14T18:30:22;4.20;;;2.00;;
33279;SDS011;20403;43.114;12.434;2022-08-14T18:32:50;12.07;;;2.45;;
33279;SDS011;20403;43.114;12.434;2022-08-14T18:35:21;4.65;;;2.10;;
33279;SDS011;20403;43.114;12.434;2022-08-14T18:37:48;4.60;;;2.72;;
33279;SDS011;20403;43.114;12.434;2022-08-14T18:42:45;5.78;;;2.08;;
33279;SDS011;20403;43.114;12.434;2022-08-14T18:45:18;3.97;;;1.98;;
33279;SDS011;20403;43.114;12.434;2022-08-14T18:48:36;8.35;;;2.00;;
33279;SDS011;20403;43.114;12.434;2022-08-14T18:50:46;7.20;;;2.25;;
33279;SDS011;20403;43.114;12.434;2022-08-14T18:53:13;6.63;;;2.15;;
33279;SDS011;20403;43.114;12.434;2022-08-14T18:55:40;5.28;;;1.77;;
33279;SDS011;20403;43.114;12.434;2022-08-14T18:58:09;3.87;;;2.10;;
33279;SDS011;20403;43.114;12.434;2022-08-14T19:03:04;6.70;;;2.15;;
33279;SDS011;20403;43.114;12.434;2022-08-14T19:18:31;9.35;;;2.28;;
33279;SDS011;20403;43.114;12.434;2022-08-14T19:20:59;4.95;;;2.08;;
33279;SDS011;20403;43.114;12.434;2022-08-14T19:23:28;8.45;;;2.17;;
33279;SDS011;20403;43.114;12.434;2022-08-14T19:26:07;5.53;;;2.10;;
33279;SDS011;20403;43.114;12.434;2022-08-14T19:28:47;5.13;;;2.35;;
33279;SDS011;20403;43.114;12.434;2022-08-14T19:34:01;10.27;;;2.25;;
33279;SDS011;20403;43.114;12.434;2022-08-14T19:36:47;8.48;;;2.10;;
33279;SDS011;20403;43.114;12.434;2022-08-14T19:39:14;4.18;;;2.22;;
33279;SDS011;20403;43.114;12.434;2022-08-14T19:41:41;3.90;;;1.95;;
33279;SDS011;20403;43.114;12.434;2022-08-14T19:44:11;9.30;;;2.55;;
33279;SDS011;20403;43.114;12.434;2022-08-14T19:46:43;11.05;;;2.53;;
33279;SDS011;20403;43.114;12.434;2022-08-14T19:49:15;6.25;;;1.92;;
33279;SDS011;20403;43.114;12.434;2022-08-14T19:51:42;9.38;;;2.40;;
33279;SDS011;20403;43.114;12.434;2022-08-14T19:54:09;3.88;;;1.95;;